Gambell, Alaska
Current Conditions -  °F | °C
As of 11:16 AM on Saturday 25 Oct 2014 (Local Time) from PAGM Reporting Station
Few Clouds Few Clouds  
Wind Chill: 25°   Ceiling: Unl
Heat Index: 34°   Visibility: 9mi
Dew Point: 21°   Wind: 12mph
Humidity: 60%   Direction: 260°W
Pressure: 29.57"   Gusts: NA
Location:  63.78°N, 171.74°W
Report Text: PAGM 251916Z AUTO 26010KT 9SM FEW041 01/M06 A2957 RMK AO1
Loading
Personal Weather Stations






























Interactive Weather Map
Tropical Storm Tracking
New forecast layout! Learn more

10-Day Weather Forecast

Advertisements
Track Severe Weather on mobile